WetterOnline ( https://www.wetteronline.de )

Wetter aktuell Pfaffenweiler

Aktuelles Wetter: Freiburg/Flugplatz (236m)

6-stündlich | Neueste Meldungen
Ortszeit Temperatur Wetter
Do, 28.05. 14:00 22.5° C wolkenlos
Do, 28.05. 8:00 12.7° C bedeckt
Do, 28.05. 2:00 11.0° C wolkenlos
Mi, 27.05. 20:00 21.6° C wolkenlos
Mi, 27.05. 14:00 22.8° C leicht bewölkt
Mi, 27.05. 8:00 11.9° C wolkenlos
Mi, 27.05. 2:00 14.2° C fast wolkenlos
Di, 26.05. 20:00 19.8° C wolkenlos
Ortszeit Temperatur Wetter
Do, 28.05. 16:00 20.9° C bedeckt
Do, 28.05. 15:50 20.9° C bedeckt
Do, 28.05. 15:40 20.7° C bewölkt
Do, 28.05. 15:30 22.7° C leicht bewölkt
Do, 28.05. 15:20 22.7° C leicht bewölkt
Do, 28.05. 15:10 22.6° C fast wolkenlos
Do, 28.05. 15:00 22.3° C wolkenlos
Do, 28.05. 14:30 22.2° C wolkenlos
Do, 28.05. 14:00 22.5° C wolkenlos
Do, 28.05. 13:30 21.8° C wolkenlos
Do, 28.05. 13:00 21.5° C wolkenlos
Ortszeit Relative Feuchte Sichtweite
Do, 28.05. 14:00 45% 14 km
Do, 28.05. 8:00 77% 35 km
Do, 28.05. 2:00 82% 45 km
Mi, 27.05. 20:00 35% 30 km
Mi, 27.05. 14:00 35% 30 km
Mi, 27.05. 8:00 70% 30 km
Mi, 27.05. 2:00 54% 70 km
Di, 26.05. 20:00 43% 40 km
Ortszeit Relative Feuchte Sichtweite
Do, 28.05. 16:00 46% 40 km
Do, 28.05. 15:50 46% -
Do, 28.05. 15:40 46% -
Do, 28.05. 15:30 39% 16 km
Do, 28.05. 15:20 39% -
Do, 28.05. 15:10 40% -
Do, 28.05. 15:00 41% 22 km
Do, 28.05. 14:30 40% 21 km
Do, 28.05. 14:00 45% 14 km
Do, 28.05. 13:30 45% 15 km
Do, 28.05. 13:00 47% 12 km
Ortszeit Niederschlagsmenge Niederschlagsart
Do, 28.05. 14:00 0.0 l/m2 in 6 Std. -
Do, 28.05. 8:00 0.0 l/m2 in 12 Std. -
Do, 28.05. 2:00 0.0 l/m2 in 6 Std. -
Mi, 27.05. 20:00 0.0 l/m2 in 12 Std. -
Mi, 27.05. 14:00 0.0 l/m2 in 6 Std. -
Mi, 27.05. 8:00 0.0 l/m2 in 12 Std. -
Mi, 27.05. 2:00 0.0 l/m2 in 6 Std. -
Di, 26.05. 20:00 0.0 l/m2 in 12 Std. -
Ortszeit Niederschlagsmenge Niederschlagsart
Do, 28.05. 16:00 0.0 l/m2 in 1 Std. -
Do, 28.05. 15:50 keine Meldung -
Do, 28.05. 15:40 keine Meldung -
Do, 28.05. 15:30 0.0 l/m2 in 1 Std. -
Do, 28.05. 15:20 keine Meldung -
Do, 28.05. 15:10 keine Meldung -
Do, 28.05. 15:00 0.0 l/m2 in 1 Std. -
Do, 28.05. 14:30 0.0 l/m2 in 1 Std. -
Do, 28.05. 14:00 0.0 l/m2 in 1 Std. -
Do, 28.05. 13:30 0.0 l/m2 in 1 Std. -
Do, 28.05. 13:00 0.0 l/m2 in 1 Std. -
Ortszeit Stärke Spitze Richtung
km/h Bft. km/h Grad Sektor
Do, 28.05. 14:00 20 4 33 340° N
Do, 28.05. 8:00 6 1 9 360° N
Do, 28.05. 2:00 4 1 25 350° N
Mi, 27.05. 20:00 18 3 36 350° N
Mi, 27.05. 14:00 13 3 33 360° N
Mi, 27.05. 8:00 7 2 18 340° N
Mi, 27.05. 2:00 9 2 26 30° NO
Di, 26.05. 20:00 15 3 43 350° N
Ortszeit Stärke Spitze Richtung
km/h Bft. km/h Grad Sektor
Do, 28.05. 16:00 14 3 40 40° NO
Do, 28.05. 15:50 14 3 - 40° NO
Do, 28.05. 15:40 18 3 - 40° NO
Do, 28.05. 15:30 25 4 40 340° N
Do, 28.05. 15:20 25 4 - 340° N
Do, 28.05. 15:10 24 4 - 340° N
Do, 28.05. 15:00 20 4 33 350° N
Do, 28.05. 14:30 18 3 32 340° N
Do, 28.05. 14:00 20 4 31 340° N
Do, 28.05. 13:30 18 3 29 350° N
Do, 28.05. 13:00 24 4 33 320° NW
Ortszeit Untergrenze Bedeckung Gattung
total tief tief mittel hoch
Do, 28.05. 14:00 - 0/8 0/8 - - -
Do, 28.05. 8:00 3900 m 8/8 8/8 - - -
Do, 28.05. 2:00 - 0/8 0/8 - - -
Mi, 27.05. 20:00 - 0/8 0/8 - - -
Mi, 27.05. 14:00 7800 m 6/8 0/8 - - -
Mi, 27.05. 8:00 - 0/8 0/8 - - -
Mi, 27.05. 2:00 10500 m 2/8 0/8 - - -
Di, 26.05. 20:00 - 0/8 0/8 - - -
Ortszeit Bedeckungsgrad in Achtel und Wolkenuntergrenze
Do, 28.05. 16:00 7(1800m) 7(2400m) 8(2700m)
Do, 28.05. 15:50 7(1800m) 7(2400m) 8(2700m)
Do, 28.05. 15:40 4(1500m) 7(2400m) 7(2700m)
Do, 28.05. 15:30 1(1800m) 3(2400m)
Do, 28.05. 15:20 1(1800m) 3(2400m)
Do, 28.05. 15:10 1(2400m)
Do, 28.05. 15:00 keine Wolken
Do, 28.05. 14:30 keine Wolken
Do, 28.05. 14:00 keine Wolken
Do, 28.05. 13:30 keine Wolken
Do, 28.05. 13:00 keine Wolken
Ortszeit Luftdruck NN (hPa) Tendenz (hPa in 3 Std.)
Do, 28.05. 14:00 1026 - 1,5
Do, 28.05. 8:00 1029 0,0
Do, 28.05. 2:00 1030 - 0,8
Mi, 27.05. 20:00 1028 - 0,2
Mi, 27.05. 14:00 1030 - 1,1
Mi, 27.05. 8:00 1032 + 0,1
Mi, 27.05. 2:00 1032 - 0,3
Di, 26.05. 20:00 1031 0,0
Ortszeit Luftdruck NN (hPa) Tendenz (hPa in 3 Std.)
Do, 28.05. 16:00 1026 - 1,0
Do, 28.05. 15:50 1026 keine Meldung
Do, 28.05. 15:40 1026 keine Meldung
Do, 28.05. 15:30 1025 - 1,5
Do, 28.05. 15:20 1025 keine Meldung
Do, 28.05. 15:10 1026 keine Meldung
Do, 28.05. 15:00 1026 - 1,4
Do, 28.05. 14:30 1026 - 1,5
Do, 28.05. 14:00 1026 - 1,5
Do, 28.05. 13:30 1027 - 1,3
Do, 28.05. 13:00 1027 - 1,2
Ortszeit Schneehöhe (cm)
Do, 28.05. 14:00 -
Do, 28.05. 8:00 -
Do, 28.05. 2:00 -
Mi, 27.05. 20:00 -
Mi, 27.05. 14:00 -
Mi, 27.05. 8:00 -
Mi, 27.05. 2:00 -
Di, 26.05. 20:00 -
Ortszeit Schneehöhe (cm)
Do, 28.05. 16:00 -
Do, 28.05. 15:50 -
Do, 28.05. 15:40 -
Do, 28.05. 15:30 -
Do, 28.05. 15:20 -
Do, 28.05. 15:10 -
Do, 28.05. 15:00 -
Do, 28.05. 14:30 -
Do, 28.05. 14:00 -
Do, 28.05. 13:30 -
Do, 28.05. 13:00 -
Link zu dieser Seite / Seite empfehlen

Das Wetter in ...